createdAt,value
2023-10-20T00:01:05.631Z,12.7
2023-10-20T00:02:14.754Z,12.8
2023-10-20T00:03:23.927Z,12.7
2023-10-20T00:04:32.111Z,12.7
2023-10-20T00:05:41.304Z,12.7
2023-10-20T00:06:50.489Z,12.7
2023-10-20T00:07:59.633Z,12.7
2023-10-20T00:09:08.802Z,12.7
2023-10-20T00:10:17.966Z,12.7
2023-10-20T00:11:27.133Z,12.7
2023-10-20T00:12:36.321Z,12.6
2023-10-20T00:13:45.492Z,12.7
2023-10-20T00:14:54.686Z,12.6
2023-10-20T00:16:03.910Z,12.6
2023-10-20T00:17:13.002Z,12.6
2023-10-20T00:18:22.181Z,12.6
2023-10-20T00:19:31.351Z,12.5
2023-10-20T00:20:39.679Z,12.6
2023-10-20T00:21:48.745Z,12.6
2023-10-20T00:22:57.894Z,12.6
2023-10-20T00:24:07.063Z,12.6
2023-10-20T00:25:16.258Z,12.6
2023-10-20T00:27:34.580Z,12.6
2023-10-20T00:28:43.829Z,12.6
2023-10-20T00:29:52.948Z,12.6
2023-10-20T00:31:02.106Z,12.6
2023-10-20T00:32:11.267Z,12.5
2023-10-20T00:33:20.430Z,12.6
2023-10-20T00:34:29.681Z,12.5
2023-10-20T00:35:37.789Z,12.6
2023-10-20T00:36:47.002Z,12.6
2023-10-20T00:37:56.154Z,12.6
2023-10-20T00:39:05.322Z,12.6
2023-10-20T00:40:14.519Z,12.6
2023-10-20T00:41:23.674Z,12.6
2023-10-20T00:42:32.876Z,12.5
2023-10-20T00:43:41.985Z,12.6
2023-10-20T00:44:51.172Z,12.6
2023-10-20T00:46:00.346Z,12.6
2023-10-20T00:48:18.688Z,12.6
2023-10-20T00:49:27.853Z,12.6
2023-10-20T00:50:36.050Z,12.6
2023-10-20T00:51:45.246Z,12.6
2023-10-20T00:52:53.412Z,12.6
2023-10-20T00:54:01.595Z,12.6
2023-10-20T00:55:10.769Z,12.6
2023-10-20T00:57:29.115Z,12.6
2023-10-20T00:58:38.325Z,12.6
2023-10-20T00:59:47.464Z,12.6
2023-10-20T01:00:56.634Z,12.6
2023-10-20T01:02:05.808Z,12.7
2023-10-20T01:03:14.975Z,12.7
2023-10-20T01:04:24.139Z,12.7
2023-10-20T01:05:33.315Z,12.7
2023-10-20T01:06:42.514Z,12.7
2023-10-20T01:07:51.666Z,12.7
2023-10-20T01:08:59.842Z,12.7
2023-10-20T01:10:09.044Z,12.7
2023-10-20T01:11:18.183Z,12.7
2023-10-20T01:12:27.363Z,12.7
2023-10-20T01:13:36.579Z,12.7
2023-10-20T01:14:45.736Z,12.7
2023-10-20T01:15:54.880Z,12.8
2023-10-20T01:17:04.056Z,12.7
2023-10-20T01:18:13.228Z,12.7
2023-10-20T01:19:22.391Z,12.7
2023-10-20T01:20:31.570Z,12.7
2023-10-20T01:21:40.740Z,12.7
2023-10-20T01:22:49.922Z,12.7
2023-10-20T01:23:58.108Z,12.8
2023-10-20T01:25:07.272Z,12.7
2023-10-20T01:26:16.439Z,12.7
2023-10-20T01:27:25.622Z,12.7
2023-10-20T01:28:34.787Z,12.7
2023-10-20T01:29:43.959Z,12.7
2023-10-20T01:30:53.138Z,12.7
2023-10-20T01:32:02.301Z,12.7
2023-10-20T01:33:11.482Z,12.6
2023-10-20T01:34:20.680Z,12.7
2023-10-20T01:35:29.831Z,12.7
2023-10-20T01:36:39.085Z,12.7
2023-10-20T01:37:48.159Z,12.7
2023-10-20T01:38:56.408Z,12.7
2023-10-20T01:40:05.518Z,12.6
2023-10-20T01:41:14.696Z,12.7
2023-10-20T01:42:23.868Z,12.6
2023-10-20T01:43:33.081Z,12.7
2023-10-20T01:44:42.213Z,12.6
2023-10-20T01:45:51.380Z,12.6
2023-10-20T01:47:00.560Z,12.7
2023-10-20T01:48:09.737Z,12.7
2023-10-20T01:49:18.909Z,12.6
2023-10-20T01:50:28.078Z,12.6
2023-10-20T01:51:37.258Z,12.6
2023-10-20T01:52:46.426Z,12.7
2023-10-20T01:53:54.595Z,12.6
2023-10-20T01:55:03.788Z,12.6
2023-10-20T01:56:12.956Z,12.6
2023-10-20T01:57:22.119Z,12.6
2023-10-20T01:58:31.300Z,12.6
2023-10-20T01:59:40.459Z,12.6
2023-10-20T02:00:49.635Z,12.5
2023-10-20T02:01:58.869Z,12.6
2023-10-20T02:03:07.973Z,12.6
2023-10-20T02:04:17.149Z,12.5
2023-10-20T02:05:26.319Z,12.6
2023-10-20T02:07:44.677Z,12.6
2023-10-20T02:08:53.844Z,12.6
2023-10-20T02:11:11.214Z,12.6
2023-10-20T02:12:20.366Z,12.6
2023-10-20T02:13:29.536Z,12.6
2023-10-20T02:14:38.706Z,12.5
2023-10-20T02:15:47.992Z,12.5
2023-10-20T02:16:56.086Z,12.5
2023-10-20T02:18:05.265Z,12.5
2023-10-20T02:19:14.437Z,12.5
2023-10-20T02:20:22.627Z,12.5
2023-10-20T02:21:30.817Z,12.5
2023-10-20T02:22:39.002Z,12.5
2023-10-20T02:23:48.169Z,12.5
2023-10-20T02:24:57.353Z,12.5
2023-10-20T02:26:06.520Z,12.5
2023-10-20T02:27:15.695Z,12.5
2023-10-20T02:28:24.869Z,12.5
2023-10-20T02:29:34.043Z,12.4
2023-10-20T02:30:43.210Z,12.4
2023-10-20T02:31:52.389Z,12.4
2023-10-20T02:33:01.557Z,12.4
2023-10-20T02:34:10.725Z,12.4
2023-10-20T02:35:19.900Z,12.4
2023-10-20T02:36:29.075Z,12.3
2023-10-20T02:37:37.267Z,12.3
2023-10-20T02:38:46.440Z,12.3
2023-10-20T02:39:55.611Z,12.3
2023-10-20T02:41:04.783Z,12.3
2023-10-20T02:42:13.943Z,12.3
2023-10-20T02:43:23.128Z,12.3
2023-10-20T02:44:32.296Z,12.2
2023-10-20T02:45:41.476Z,12.2
2023-10-20T02:46:50.636Z,12.3
2023-10-20T02:47:59.804Z,12.2
2023-10-20T02:49:08.968Z,12.3
2023-10-20T02:50:18.152Z,12.2
2023-10-20T02:51:27.331Z,12.2
2023-10-20T02:52:35.516Z,12.2
2023-10-20T02:53:44.698Z,12.1
2023-10-20T02:54:53.849Z,12.1
2023-10-20T02:56:03.023Z,12.1
2023-10-20T02:57:12.199Z,12.2
2023-10-20T02:58:21.375Z,12.1
2023-10-20T02:59:30.545Z,12.1
2023-10-20T03:00:39.714Z,12.1
2023-10-20T03:01:47.917Z,12.1
2023-10-20T03:02:56.100Z,12.1
2023-10-20T03:04:05.363Z,12.2
2023-10-20T03:05:14.473Z,12.1
2023-10-20T03:06:23.625Z,12.1
2023-10-20T03:07:32.781Z,12.1
2023-10-20T03:08:41.942Z,12.1
2023-10-20T03:09:51.132Z,12.1
2023-10-20T03:11:00.297Z,12.1
2023-10-20T03:13:18.663Z,12.1
2023-10-20T03:14:27.821Z,12.1
2023-10-20T03:15:37.020Z,12.1
2023-10-20T03:16:46.297Z,12
2023-10-20T03:19:03.516Z,12.1
2023-10-20T03:20:11.704Z,12
2023-10-20T03:22:29.077Z,12
2023-10-20T03:23:38.238Z,12
2023-10-20T03:24:47.408Z,12
2023-10-20T03:25:56.577Z,12.1
2023-10-20T03:27:05.757Z,12
2023-10-20T03:28:14.941Z,12
2023-10-20T03:29:24.099Z,12
2023-10-20T03:30:33.294Z,12
2023-10-20T03:31:42.446Z,12
2023-10-20T03:32:51.627Z,12
2023-10-20T03:34:00.776Z,12
2023-10-20T03:35:09.961Z,12
2023-10-20T03:36:18.158Z,12
2023-10-20T03:37:27.469Z,12
2023-10-20T03:38:36.499Z,11.9
2023-10-20T03:39:45.707Z,11.9
2023-10-20T03:40:54.880Z,11.9
2023-10-20T03:42:04.008Z,11.9
2023-10-20T03:43:13.180Z,11.9
2023-10-20T03:44:21.360Z,11.9
2023-10-20T03:45:29.559Z,12
2023-10-20T03:46:38.733Z,11.9
2023-10-20T03:47:47.898Z,11.9
2023-10-20T03:48:57.084Z,11.8
2023-10-20T03:50:06.249Z,11.8
2023-10-20T03:51:15.456Z,11.8
2023-10-20T03:52:24.580Z,11.8
2023-10-20T03:53:33.776Z,11.7
2023-10-20T03:54:42.944Z,11.7
2023-10-20T03:55:52.109Z,11.7
2023-10-20T03:57:01.272Z,11.7
2023-10-20T03:58:10.453Z,11.6
2023-10-20T03:59:19.619Z,11.6
2023-10-20T04:00:27.805Z,11.6
2023-10-20T04:01:36.985Z,11.6
2023-10-20T04:02:46.156Z,11.6
2023-10-20T04:03:55.323Z,11.6
2023-10-20T04:05:04.504Z,11.5
2023-10-20T04:06:13.666Z,11.5
2023-10-20T04:07:21.893Z,11.5
2023-10-20T04:08:30.074Z,11.5
2023-10-20T04:09:38.248Z,11.5
2023-10-20T04:10:47.421Z,11.5
2023-10-20T04:11:56.588Z,11.5
2023-10-20T04:13:05.751Z,11.5
2023-10-20T04:14:14.935Z,11.4
2023-10-20T04:15:24.140Z,11.4
2023-10-20T04:16:33.278Z,11.5
2023-10-20T04:17:42.449Z,11.5
2023-10-20T04:18:51.631Z,11.4
2023-10-20T04:20:00.788Z,11.4
2023-10-20T04:21:09.963Z,11.4
2023-10-20T04:22:19.144Z,11.4
2023-10-20T04:23:28.324Z,11.4
2023-10-20T04:24:36.504Z,11.4
2023-10-20T04:25:45.678Z,11.3
2023-10-20T04:26:54.847Z,11.3
2023-10-20T04:28:04.001Z,11.3
2023-10-20T04:29:13.183Z,11.3
2023-10-20T04:30:22.356Z,11.3
2023-10-20T04:31:31.541Z,11.3
2023-10-20T04:32:40.708Z,11.3
2023-10-20T04:33:49.882Z,11.2
2023-10-20T04:34:59.049Z,11.3
2023-10-20T04:36:08.296Z,11.2
2023-10-20T04:37:17.419Z,11.2
2023-10-20T04:38:26.570Z,11.2
2023-10-20T04:39:34.755Z,11.2
2023-10-20T04:40:43.934Z,11.2
2023-10-20T04:41:53.089Z,11.2
2023-10-20T04:43:02.276Z,11.2
2023-10-20T04:44:11.451Z,11.1
2023-10-20T04:45:20.642Z,11.2
2023-10-20T04:46:29.808Z,11.1
2023-10-20T04:47:38.963Z,11.1
2023-10-20T04:49:57.318Z,11.1
2023-10-20T04:52:15.641Z,11
2023-10-20T04:53:24.830Z,11
2023-10-20T04:55:42.176Z,11
2023-10-20T04:56:50.367Z,11
2023-10-20T04:57:58.556Z,11
2023-10-20T04:59:07.727Z,10.9
2023-10-20T05:00:16.915Z,10.9
2023-10-20T05:01:26.086Z,10.9
2023-10-20T05:02:35.261Z,10.9
2023-10-20T05:03:44.423Z,10.8
2023-10-20T05:04:53.589Z,10.9
2023-10-20T05:06:02.780Z,10.9
2023-10-20T05:08:21.175Z,10.8
2023-10-20T05:09:30.280Z,10.8
2023-10-20T05:10:39.471Z,10.7
2023-10-20T05:11:48.633Z,10.7
2023-10-20T05:12:56.813Z,10.6
2023-10-20T05:14:05.992Z,10.6
2023-10-20T05:15:15.169Z,10.6
2023-10-20T05:17:33.500Z,10.6
2023-10-20T05:18:41.726Z,10.6
2023-10-20T05:19:49.908Z,10.5
2023-10-20T05:20:59.117Z,10.5
2023-10-20T05:22:08.260Z,10.6
2023-10-20T05:23:17.430Z,10.5
2023-10-20T05:25:35.746Z,10.5
2023-10-20T05:26:44.953Z,10.5
2023-10-20T05:27:54.089Z,10.4
2023-10-20T05:29:03.268Z,10.5
2023-10-20T05:30:12.434Z,10.5
2023-10-20T05:31:21.594Z,10.4
2023-10-20T05:32:30.780Z,10.4
2023-10-20T05:33:39.957Z,10.5
2023-10-20T05:34:48.137Z,10.5
2023-10-20T05:35:57.331Z,10.5
2023-10-20T05:37:06.505Z,10.4
2023-10-20T05:38:15.672Z,10.4
2023-10-20T05:39:24.830Z,10.4
2023-10-20T05:40:34.070Z,10.4
2023-10-20T05:41:43.200Z,10.3
2023-10-20T05:42:52.373Z,10.4
2023-10-20T05:44:00.566Z,10.4
2023-10-20T05:45:08.762Z,10.4
2023-10-20T05:46:17.926Z,10.3
2023-10-20T05:47:27.112Z,10.3
2023-10-20T05:48:36.275Z,10.3
2023-10-20T05:49:45.440Z,10.3
2023-10-20T05:50:54.629Z,10.3
2023-10-20T05:52:03.785Z,10.3
2023-10-20T05:53:12.949Z,10.3
2023-10-20T05:54:22.129Z,10.3
2023-10-20T05:55:30.323Z,10.3
2023-10-20T05:56:38.513Z,10.3
2023-10-20T05:57:47.689Z,10.4
2023-10-20T05:58:56.872Z,10.3
2023-10-20T06:00:06.103Z,10.3
2023-10-20T06:01:15.314Z,10.3
2023-10-20T06:02:24.392Z,10.3
2023-10-20T06:03:33.850Z,10.3
2023-10-20T06:04:43.012Z,10.4
2023-10-20T06:05:52.233Z,10.3
2023-10-20T06:07:01.071Z,10.5
2023-10-20T06:08:09.274Z,10.4
2023-10-20T06:09:18.646Z,10.3
2023-10-20T06:10:27.903Z,10.4
2023-10-20T06:11:37.163Z,10.3
2023-10-20T06:12:46.271Z,10.3
2023-10-20T06:13:55.458Z,10.4
2023-10-20T06:15:04.534Z,10.3
2023-10-20T06:16:13.474Z,10.3
2023-10-20T06:17:22.915Z,10.3
2023-10-20T06:18:30.972Z,10.3
2023-10-20T06:19:39.134Z,10.2
2023-10-20T06:21:57.546Z,10.2
2023-10-20T06:23:06.572Z,10.2
2023-10-20T06:24:15.770Z,10.2
2023-10-20T06:25:25.014Z,10.2
2023-10-20T06:26:34.136Z,10.2
2023-10-20T06:27:43.235Z,10.2
2023-10-20T06:28:52.404Z,10.2
2023-10-20T06:30:01.676Z,10.2
2023-10-20T06:31:10.751Z,10.2
2023-10-20T06:32:20.112Z,10.2
2023-10-20T06:33:29.265Z,10.2
2023-10-20T06:34:37.412Z,10.5
2023-10-20T06:35:46.492Z,10.2
2023-10-20T06:36:55.802Z,10.2
2023-10-20T06:38:04.823Z,10.3
2023-10-20T06:39:13.964Z,10.3
2023-10-20T06:40:23.173Z,10.2
2023-10-20T06:41:32.488Z,10.2
2023-10-20T06:42:41.521Z,10.2
2023-10-20T06:43:50.723Z,10.2
2023-10-20T06:46:09.054Z,10.1
2023-10-20T06:47:18.163Z,10.1
2023-10-20T06:48:27.344Z,10.2
2023-10-20T06:50:44.815Z,10.2
2023-10-20T06:51:53.971Z,10.1
2023-10-20T06:53:03.064Z,10.2
2023-10-20T06:54:12.208Z,10.1
2023-10-20T06:55:21.487Z,10.1
2023-10-20T06:56:29.703Z,10.2
2023-10-20T06:57:38.843Z,10.1
2023-10-20T06:58:47.041Z,10.1
2023-10-20T06:59:55.208Z,10.1
2023-10-20T07:01:04.371Z,10.1
2023-10-20T07:02:13.630Z,10.1
2023-10-20T07:03:22.652Z,10.1
2023-10-20T07:04:31.839Z,10.1
2023-10-20T07:06:50.219Z,10.1
2023-10-20T07:07:59.355Z,10.1
2023-10-20T07:09:08.532Z,10.1
2023-10-20T07:10:17.696Z,10.1
2023-10-20T07:11:26.872Z,10.1
2023-10-20T07:12:36.059Z,10
2023-10-20T07:13:45.207Z,10.1
2023-10-20T07:14:53.421Z,10
2023-10-20T07:16:02.584Z,10.1
2023-10-20T07:17:11.867Z,10.1
2023-10-20T07:18:20.928Z,10.1
2023-10-20T07:20:39.290Z,10.1
2023-10-20T07:21:47.765Z,10.2
2023-10-20T07:22:55.886Z,10.1
2023-10-20T07:26:23.174Z,10
2023-10-20T07:27:32.641Z,10
2023-10-20T07:28:41.810Z,10
2023-10-20T07:29:51.130Z,10
2023-10-20T07:30:59.860Z,10.1
2023-10-20T07:32:09.020Z,10
2023-10-20T07:33:18.206Z,10.1
2023-10-20T07:34:27.369Z,10
2023-10-20T07:35:35.578Z,10
2023-10-20T07:36:43.849Z,10
2023-10-20T07:37:53.120Z,10.1
2023-10-20T07:39:02.365Z,10
2023-10-20T07:41:20.673Z,10
2023-10-20T07:42:29.868Z,10
2023-10-20T07:43:39.074Z,10
2023-10-20T07:44:48.093Z,10
2023-10-20T07:45:57.330Z,10
2023-10-20T07:47:06.478Z,10
2023-10-20T07:48:15.476Z,9.9
2023-10-20T07:49:24.985Z,10
2023-10-20T07:50:33.999Z,10
2023-10-20T07:51:42.297Z,9.9
2023-10-20T07:52:51.277Z,10
2023-10-20T07:54:00.482Z,10
2023-10-20T07:55:09.566Z,10
2023-10-20T07:56:19.060Z,10
2023-10-20T07:58:37.327Z,9.9
2023-10-20T07:59:46.505Z,10
2023-10-20T08:00:55.448Z,9.9
2023-10-20T08:02:04.831Z,10
2023-10-20T08:03:13.738Z,9.9
2023-10-20T08:04:23.198Z,9.9
2023-10-20T08:05:31.462Z,10
2023-10-20T08:06:40.587Z,10.1
2023-10-20T08:07:48.767Z,10.1
2023-10-20T08:08:57.932Z,10
2023-10-20T08:10:07.103Z,10
2023-10-20T08:11:16.238Z,9.9
2023-10-20T08:12:25.453Z,10.1
2023-10-20T08:13:34.607Z,9.9
2023-10-20T08:14:43.723Z,10.1
2023-10-20T08:15:52.865Z,10.1
2023-10-20T08:17:01.379Z,10
2023-10-20T08:18:09.382Z,10
2023-10-20T08:19:18.555Z,10
2023-10-20T08:20:27.644Z,10
2023-10-20T08:21:36.624Z,10
2023-10-20T08:22:46.043Z,10
2023-10-20T08:23:55.218Z,9.9
2023-10-20T08:25:04.276Z,10
2023-10-20T08:26:13.339Z,9.9
2023-10-20T08:27:22.602Z,9.9
2023-10-20T08:28:31.794Z,10
2023-10-20T08:29:41.060Z,10
2023-10-20T08:30:50.241Z,9.9
2023-10-20T08:31:59.274Z,10
2023-10-20T08:33:07.550Z,10
2023-10-20T08:34:16.781Z,10
2023-10-20T08:35:25.655Z,10.1
2023-10-20T08:36:35.102Z,10
2023-10-20T08:37:44.284Z,10
2023-10-20T08:38:53.440Z,10
2023-10-20T08:40:01.658Z,9.9
2023-10-20T08:41:10.584Z,9.9
2023-10-20T08:42:19.064Z,10.1
2023-10-20T08:43:27.901Z,10
2023-10-20T08:44:37.164Z,10
2023-10-20T08:45:46.246Z,9.9
2023-10-20T08:46:55.572Z,10
2023-10-20T08:48:04.734Z,10
2023-10-20T08:49:13.758Z,10
2023-10-20T08:50:23.172Z,10
2023-10-20T08:51:32.284Z,9.9
2023-10-20T08:52:41.408Z,9.9
2023-10-20T08:53:50.567Z,10
2023-10-20T08:55:00.003Z,10
2023-10-20T08:56:09.140Z,10
2023-10-20T08:57:17.183Z,9.8
2023-10-20T08:58:26.322Z,9.9
2023-10-20T08:59:35.390Z,10
2023-10-20T09:00:44.504Z,10.1
2023-10-20T09:01:54.033Z,10
2023-10-20T09:03:03.011Z,9.9
2023-10-20T09:04:12.177Z,10
2023-10-20T09:05:21.473Z,10
2023-10-20T09:06:30.668Z,9.9
2023-10-20T09:07:39.726Z,10
2023-10-20T09:08:49.041Z,10
2023-10-20T09:09:57.222Z,9.9
2023-10-20T09:12:14.585Z,9.8
2023-10-20T09:13:22.609Z,10
2023-10-20T09:14:30.669Z,9.9
2023-10-20T09:15:39.984Z,10
2023-10-20T09:16:49.002Z,9.8
2023-10-20T09:17:58.449Z,10
2023-10-20T09:19:07.585Z,9.9
2023-10-20T09:21:26.063Z,10
2023-10-20T09:22:35.218Z,10
2023-10-20T09:23:44.095Z,10.1
2023-10-20T09:24:53.242Z,10
2023-10-20T09:26:02.410Z,10.1
2023-10-20T09:27:11.556Z,9.9
2023-10-20T09:28:20.791Z,9.9
2023-10-20T09:29:28.929Z,10
2023-10-20T09:30:38.095Z,10
2023-10-20T09:31:47.572Z,10
2023-10-20T09:32:56.717Z,9.9
2023-10-20T09:34:05.617Z,10
2023-10-20T09:35:14.788Z,10
2023-10-20T09:36:24.180Z,10
2023-10-20T09:37:32.506Z,10
2023-10-20T09:39:49.847Z,9.9
2023-10-20T09:40:59.027Z,9.9
2023-10-20T09:42:08.084Z,9.9
2023-10-20T09:43:17.244Z,9.8
2023-10-20T09:44:26.496Z,9.8
2023-10-20T09:45:35.551Z,9.8
2023-10-20T09:46:44.788Z,9.8
2023-10-20T09:47:53.818Z,9.8
2023-10-20T09:49:03.315Z,9.7
2023-10-20T09:50:12.069Z,9.8
2023-10-20T09:51:21.529Z,9.7
2023-10-20T09:52:30.536Z,9.6
2023-10-20T09:53:38.811Z,9.6
2023-10-20T09:54:48.170Z,9.6
2023-10-20T09:57:06.477Z,9.5
2023-10-20T09:58:14.582Z,9.5
2023-10-20T09:59:22.707Z,9.5
2023-10-20T10:00:31.702Z,9.5
2023-10-20T10:01:40.962Z,9.5
2023-10-20T10:02:50.390Z,9.6
2023-10-20T10:03:59.494Z,9.6
2023-10-20T10:05:08.653Z,9.6
2023-10-20T10:06:17.706Z,9.6
2023-10-20T10:07:26.727Z,9.6
2023-10-20T10:08:36.154Z,9.6
2023-10-20T10:09:44.119Z,9.6
2023-10-20T10:10:52.389Z,9.6
2023-10-20T10:12:01.683Z,9.6
2023-10-20T10:13:10.769Z,9.6
2023-10-20T10:14:19.783Z,9.6
2023-10-20T10:15:29.149Z,9.5
2023-10-20T10:16:38.299Z,9.6
2023-10-20T10:17:47.488Z,9.6
2023-10-20T10:20:05.909Z,9.6
2023-10-20T10:21:15.189Z,9.6
2023-10-20T10:22:24.254Z,9.7
2023-10-20T10:23:33.368Z,9.6
2023-10-20T10:24:42.662Z,9.6
2023-10-20T10:25:50.841Z,9.6
2023-10-20T10:26:59.939Z,9.5
2023-10-20T10:28:09.133Z,9.6
2023-10-20T10:29:18.039Z,9.6
2023-10-20T10:30:27.370Z,9.6
2023-10-20T10:31:36.374Z,9.7
2023-10-20T10:32:45.831Z,9.7
2023-10-20T10:33:54.870Z,9.7
2023-10-20T10:36:13.358Z,9.6
2023-10-20T10:37:22.385Z,9.6
2023-10-20T10:38:31.625Z,9.6
2023-10-20T10:39:40.711Z,9.6
2023-10-20T10:40:49.072Z,9.7
2023-10-20T10:41:57.955Z,9.6
2023-10-20T10:43:07.403Z,9.7
2023-10-20T10:45:25.746Z,9.7
2023-10-20T10:46:34.665Z,9.7
2023-10-20T10:47:44.099Z,9.7
2023-10-20T10:48:53.150Z,9.7
2023-10-20T10:50:02.428Z,9.7
2023-10-20T10:51:11.580Z,9.7
2023-10-20T10:52:20.857Z,9.6
2023-10-20T10:53:29.921Z,9.7
2023-10-20T10:54:39.080Z,9.6
2023-10-20T10:55:48.035Z,9.6
2023-10-20T10:58:05.378Z,9.6
2023-10-20T10:59:13.750Z,9.6
2023-10-20T11:00:21.974Z,9.6
2023-10-20T11:01:31.106Z,9.7
2023-10-20T11:03:49.343Z,9.6
2023-10-20T11:04:58.728Z,9.6
2023-10-20T11:06:07.950Z,9.6
2023-10-20T11:08:26.243Z,9.6
2023-10-20T11:09:35.385Z,9.6
2023-10-20T11:10:44.570Z,9.6
2023-10-20T11:11:53.649Z,9.6
2023-10-20T11:13:01.961Z,9.6
2023-10-20T11:14:09.986Z,9.7
2023-10-20T11:15:19.246Z,9.6
2023-10-20T11:16:28.402Z,9.7
2023-10-20T11:17:37.516Z,9.6
2023-10-20T11:18:46.746Z,9.6
2023-10-20T11:19:55.879Z,9.7
2023-10-20T11:21:05.174Z,9.7
2023-10-20T11:22:14.095Z,9.7
2023-10-20T11:23:23.252Z,9.7
2023-10-20T11:25:40.629Z,9.7
2023-10-20T11:26:48.815Z,9.7
2023-10-20T11:27:58.010Z,9.6
2023-10-20T11:29:07.168Z,9.7
2023-10-20T11:30:16.335Z,9.7
2023-10-20T11:31:25.499Z,9.7
2023-10-20T11:32:34.690Z,9.6
2023-10-20T11:33:43.857Z,9.6
2023-10-20T11:34:53.018Z,9.7
2023-10-20T11:37:11.371Z,9.7
2023-10-20T11:38:19.555Z,9.6
2023-10-20T11:39:27.758Z,9.7
2023-10-20T11:40:35.952Z,9.7
2023-10-20T11:41:45.114Z,9.6
2023-10-20T11:42:54.294Z,9.7
2023-10-20T11:44:03.454Z,9.7
2023-10-20T11:45:12.626Z,9.6
2023-10-20T11:46:21.809Z,9.7
2023-10-20T11:47:30.978Z,9.7
2023-10-20T11:48:40.156Z,9.7
2023-10-20T11:49:49.331Z,9.7
2023-10-20T11:50:57.525Z,9.7
2023-10-20T11:52:05.712Z,9.7
2023-10-20T11:53:14.888Z,9.7
2023-10-20T11:54:24.051Z,9.7
2023-10-20T11:55:33.246Z,9.7
2023-10-20T11:56:42.416Z,9.7
2023-10-20T11:57:51.586Z,9.7
2023-10-20T11:59:00.747Z,9.7
2023-10-20T12:00:09.940Z,9.7
2023-10-20T12:02:28.274Z,9.7
2023-10-20T12:03:37.445Z,9.7
2023-10-20T12:04:46.610Z,9.7
2023-10-20T12:05:55.788Z,9.8
2023-10-20T12:07:03.979Z,9.8
2023-10-20T12:08:13.159Z,9.7
2023-10-20T12:09:22.329Z,9.7
2023-10-20T12:10:31.498Z,9.7
2023-10-20T12:11:40.664Z,9.8
2023-10-20T12:12:49.841Z,9.7
2023-10-20T12:13:59.011Z,9.7
2023-10-20T12:16:16.380Z,9.7
2023-10-20T12:17:24.568Z,9.7
2023-10-20T12:18:33.740Z,9.7
2023-10-20T12:19:42.932Z,9.8
2023-10-20T12:20:52.078Z,9.7
2023-10-20T12:22:01.260Z,9.7
2023-10-20T12:23:10.441Z,9.7
2023-10-20T12:24:19.601Z,9.6
2023-10-20T12:25:28.777Z,9.7
2023-10-20T12:26:36.968Z,9.7
2023-10-20T12:27:45.155Z,9.7
2023-10-20T12:28:54.343Z,9.7
2023-10-20T12:30:03.509Z,9.7
2023-10-20T12:31:12.671Z,9.7
2023-10-20T12:32:21.848Z,9.6
2023-10-20T12:33:31.017Z,9.6
2023-10-20T12:34:40.193Z,9.7
2023-10-20T12:35:49.351Z,9.7
2023-10-20T12:36:58.538Z,9.7
2023-10-20T12:38:07.715Z,9.6
2023-10-20T12:39:16.896Z,9.6
2023-10-20T12:40:26.067Z,9.6
2023-10-20T12:41:35.224Z,9.6
2023-10-20T12:42:43.435Z,9.6
2023-10-20T12:43:52.602Z,9.6
2023-10-20T12:45:01.758Z,9.6
2023-10-20T12:46:10.941Z,9.5
2023-10-20T12:47:20.113Z,9.6
2023-10-20T12:48:29.286Z,9.6
2023-10-20T12:49:38.453Z,9.6
2023-10-20T12:50:47.630Z,9.6
2023-10-20T12:51:56.800Z,9.6
2023-10-20T12:53:05.964Z,9.6
2023-10-20T12:54:15.143Z,9.6
2023-10-20T12:55:24.323Z,9.6
2023-10-20T12:57:42.666Z,9.6
2023-10-20T12:58:50.842Z,9.6
2023-10-20T13:00:00.020Z,9.5
2023-10-20T13:01:09.199Z,9.6
2023-10-20T13:02:18.368Z,9.5
2023-10-20T13:03:27.552Z,9.5
2023-10-20T13:04:36.715Z,9.5
2023-10-20T13:05:45.885Z,9.5
2023-10-20T13:06:55.059Z,9.6
2023-10-20T13:08:04.250Z,9.6
2023-10-20T13:09:13.402Z,9.6
2023-10-20T13:10:22.573Z,9.6
2023-10-20T13:11:31.743Z,9.6
2023-10-20T13:13:50.085Z,9.6
2023-10-20T13:14:58.271Z,9.6
2023-10-20T13:16:07.460Z,9.6
2023-10-20T13:17:16.622Z,9.5
2023-10-20T13:18:25.805Z,9.6
2023-10-20T13:19:34.966Z,9.6
2023-10-20T13:20:44.559Z,9.6
2023-10-20T13:21:53.323Z,9.6
2023-10-20T13:23:02.482Z,9.6
2023-10-20T13:24:11.661Z,9.6
2023-10-20T13:25:20.828Z,9.6
2023-10-20T13:27:39.176Z,9.6
2023-10-20T13:28:48.345Z,9.6
2023-10-20T13:29:56.532Z,9.6
2023-10-20T13:31:05.706Z,9.6
2023-10-20T13:32:14.876Z,9.6
2023-10-20T13:33:24.041Z,9.6
2023-10-20T13:34:33.233Z,9.6
2023-10-20T13:35:42.398Z,9.6
2023-10-20T13:36:51.574Z,9.6
2023-10-20T13:38:00.745Z,9.6
2023-10-20T13:39:09.918Z,9.6
2023-10-20T13:40:19.085Z,9.6
2023-10-20T13:41:28.253Z,9.7
2023-10-20T13:42:37.442Z,9.7
2023-10-20T13:43:46.594Z,9.6
2023-10-20T13:44:54.793Z,9.6
2023-10-20T13:46:03.958Z,9.6
2023-10-20T13:47:13.130Z,9.6
2023-10-20T13:48:22.316Z,9.6
2023-10-20T13:49:31.495Z,9.6
2023-10-20T13:50:39.677Z,9.6
2023-10-20T13:51:48.851Z,9.6
2023-10-20T13:52:58.016Z,9.6
2023-10-20T13:54:07.190Z,9.6
2023-10-20T13:55:16.373Z,9.6
2023-10-20T13:56:25.546Z,9.6
2023-10-20T13:57:34.726Z,9.6
2023-10-20T13:58:43.882Z,9.6
2023-10-20T13:59:53.063Z,9.6
2023-10-20T14:01:02.237Z,9.6
2023-10-20T14:02:11.417Z,9.6
2023-10-20T14:03:20.590Z,9.6
2023-10-20T14:04:29.760Z,9.6
2023-10-20T14:05:37.942Z,9.7
2023-10-20T14:06:47.107Z,9.6
2023-10-20T14:07:56.295Z,9.6
2023-10-20T14:09:05.455Z,9.6
2023-10-20T14:10:14.630Z,9.6
2023-10-20T14:11:23.804Z,9.6
2023-10-20T14:13:42.157Z,9.7
2023-10-20T14:14:51.334Z,9.6
2023-10-20T14:16:00.498Z,9.6
2023-10-20T14:17:09.669Z,9.7
2023-10-20T14:19:28.007Z,9.7
2023-10-20T14:20:36.202Z,9.7
2023-10-20T14:21:45.378Z,9.7
2023-10-20T14:22:54.555Z,9.7
2023-10-20T14:24:03.717Z,9.7
2023-10-20T14:25:12.894Z,9.7
2023-10-20T14:26:22.069Z,9.7
2023-10-20T14:27:31.241Z,9.7
2023-10-20T14:28:40.406Z,9.7
2023-10-20T14:29:49.583Z,9.7
2023-10-20T14:30:58.757Z,9.7
2023-10-20T14:32:07.913Z,9.7
2023-10-20T14:33:17.093Z,9.7
2023-10-20T14:34:26.286Z,9.7
2023-10-20T14:35:34.456Z,9.7
2023-10-20T14:36:43.628Z,9.7
2023-10-20T14:37:52.813Z,9.7
2023-10-20T14:40:11.144Z,9.7
2023-10-20T14:42:29.483Z,9.7
2023-10-20T14:43:37.678Z,9.8
2023-10-20T14:44:45.871Z,9.8
2023-10-20T14:45:55.047Z,9.8
2023-10-20T14:47:04.216Z,9.8
2023-10-20T14:48:13.390Z,9.8
2023-10-20T14:49:22.561Z,9.8
2023-10-20T14:50:31.741Z,9.9
2023-10-20T14:51:40.913Z,9.8
2023-10-20T14:52:50.075Z,9.9
2023-10-20T14:53:59.251Z,9.9
2023-10-20T14:55:07.447Z,9.9
2023-10-20T14:56:16.610Z,9.9
2023-10-20T14:57:24.814Z,9.9
2023-10-20T14:58:33.976Z,9.9
2023-10-20T14:59:43.145Z,9.9
2023-10-20T15:00:52.330Z,9.9
2023-10-20T15:02:01.490Z,9.9
2023-10-20T15:03:10.674Z,10
2023-10-20T15:04:19.837Z,10
2023-10-20T15:05:29.006Z,10
2023-10-20T15:06:38.192Z,10
2023-10-20T15:07:47.363Z,10
2023-10-20T15:10:05.708Z,10
2023-10-20T15:11:14.864Z,10
2023-10-20T15:12:23.067Z,10.1
2023-10-20T15:13:32.232Z,10
2023-10-20T15:14:41.414Z,10
2023-10-20T15:15:50.582Z,10
2023-10-20T15:16:59.754Z,10
2023-10-20T15:18:08.923Z,10
2023-10-20T15:19:17.122Z,10.1
2023-10-20T15:20:25.307Z,10.1
2023-10-20T15:21:34.487Z,10.1
2023-10-20T15:22:43.653Z,10.1
2023-10-20T15:23:52.831Z,10.1
2023-10-20T15:25:02.013Z,10.1
2023-10-20T15:26:11.178Z,10.1
2023-10-20T15:27:20.351Z,10.2
2023-10-20T15:28:29.522Z,10.2
2023-10-20T15:29:38.721Z,10.2
2023-10-20T15:30:47.881Z,10.2
2023-10-20T15:31:57.034Z,10.2
2023-10-20T15:33:06.204Z,10.3
2023-10-20T15:34:15.374Z,10.2
2023-10-20T15:35:23.569Z,10.2
2023-10-20T15:36:32.740Z,10.3
2023-10-20T15:38:51.089Z,10.3
2023-10-20T15:40:00.251Z,10.4
2023-10-20T15:41:09.440Z,10.4
2023-10-20T15:42:18.608Z,10.5
2023-10-20T15:43:27.776Z,10.4
2023-10-20T15:44:36.955Z,10.4
2023-10-20T15:45:46.117Z,10.4
2023-10-20T15:46:55.294Z,10.3
2023-10-20T15:49:13.650Z,10.3
2023-10-20T15:50:21.829Z,10.3
2023-10-20T15:51:31.004Z,10.4
2023-10-20T15:52:40.190Z,10.4
2023-10-20T15:53:49.354Z,10.4
2023-10-20T15:54:58.524Z,10.5
2023-10-20T15:56:07.693Z,10.5
2023-10-20T15:57:16.869Z,10.4
2023-10-20T15:58:26.034Z,10.5
2023-10-20T15:59:35.210Z,10.5
2023-10-20T16:00:44.380Z,10.5
2023-10-20T16:01:53.553Z,10.5
2023-10-20T16:03:02.726Z,10.6
2023-10-20T16:04:11.902Z,10.5
2023-10-20T16:05:20.090Z,10.5
2023-10-20T16:06:29.263Z,10.6
2023-10-20T16:07:38.441Z,10.7
2023-10-20T16:08:47.612Z,10.7
2023-10-20T16:09:56.775Z,10.7
2023-10-20T16:11:05.954Z,10.7
2023-10-20T16:12:15.132Z,10.7
2023-10-20T16:13:24.296Z,10.7
2023-10-20T16:15:42.634Z,10.7
2023-10-20T16:16:51.813Z,10.7
2023-10-20T16:18:00.994Z,10.6
2023-10-20T16:19:10.168Z,10.7
2023-10-20T16:20:18.353Z,10.7
2023-10-20T16:21:26.535Z,10.7
2023-10-20T16:22:35.708Z,10.7
2023-10-20T16:23:44.889Z,10.7
2023-10-20T16:24:54.056Z,10.7
2023-10-20T16:27:12.418Z,10.8
2023-10-20T16:28:21.584Z,10.8
2023-10-20T16:29:30.740Z,10.8
2023-10-20T16:30:39.919Z,10.8
2023-10-20T16:31:49.096Z,10.8
2023-10-20T16:32:58.277Z,10.8
2023-10-20T16:34:07.447Z,10.8
2023-10-20T16:35:16.617Z,10.9